sensor_id;sensor_type;location;lat;lon;timestamp;temperature;humidity
78455;SHT31;67751;51.986;5.696;2023-03-01T00:00:03;3.3;52.8
78455;SHT31;67751;51.986;5.696;2023-03-01T00:02:34;3.2;52.2
78455;SHT31;67751;51.986;5.696;2023-03-01T00:05:04;3.2;52.2
78455;SHT31;67751;51.986;5.696;2023-03-01T00:07:34;3.2;52.5
78455;SHT31;67751;51.986;5.696;2023-03-01T00:10:04;3.2;52.7
78455;SHT31;67751;51.986;5.696;2023-03-01T00:12:34;3.2;53.4
78455;SHT31;67751;51.986;5.696;2023-03-01T00:15:06;3.2;53.4
78455;SHT31;67751;51.986;5.696;2023-03-01T00:17:35;3.2;52.9
78455;SHT31;67751;51.986;5.696;2023-03-01T00:20:06;3.2;52.7
78455;SHT31;67751;51.986;5.696;2023-03-01T00:22:37;3.2;53.0
78455;SHT31;67751;51.986;5.696;2023-03-01T00:25:07;3.2;53.7
78455;SHT31;67751;51.986;5.696;2023-03-01T00:27:37;3.2;53.9
78455;SHT31;67751;51.986;5.696;2023-03-01T00:30:08;3.2;53.4
78455;SHT31;67751;51.986;5.696;2023-03-01T00:32:38;3.2;53.5
78455;SHT31;67751;51.986;5.696;2023-03-01T00:35:08;3.2;52.9
78455;SHT31;67751;51.986;5.696;2023-03-01T00:37:38;3.1;52.5
78455;SHT31;67751;51.986;5.696;2023-03-01T00:40:09;3.1;53.0
78455;SHT31;67751;51.986;5.696;2023-03-01T00:42:40;3.1;53.5
78455;SHT31;67751;51.986;5.696;2023-03-01T00:45:10;3.1;54.0
78455;SHT31;67751;51.986;5.696;2023-03-01T00:47:40;3.1;53.6
78455;SHT31;67751;51.986;5.696;2023-03-01T00:50:11;3.1;53.4
78455;SHT31;67751;51.986;5.696;2023-03-01T00:52:41;3.1;54.0
78455;SHT31;67751;51.986;5.696;2023-03-01T00:55:11;3.1;54.0
78455;SHT31;67751;51.986;5.696;2023-03-01T00:57:41;3.1;52.9
78455;SHT31;67751;51.986;5.696;2023-03-01T01:00:12;3.1;53.1
78455;SHT31;67751;51.986;5.696;2023-03-01T01:02:44;3.1;53.2
78455;SHT31;67751;51.986;5.696;2023-03-01T01:05:14;3.1;53.3
78455;SHT31;67751;51.986;5.696;2023-03-01T01:07:48;3.1;53.3
78455;SHT31;67751;51.986;5.696;2023-03-01T01:10:18;3.1;53.1
78455;SHT31;67751;51.986;5.696;2023-03-01T01:12:48;3.1;53.0
78455;SHT31;67751;51.986;5.696;2023-03-01T01:15:20;3.1;52.9
78455;SHT31;67751;51.986;5.696;2023-03-01T01:17:49;3.1;52.9
78455;SHT31;67751;51.986;5.696;2023-03-01T01:20:19;3.1;53.3
78455;SHT31;67751;51.986;5.696;2023-03-01T01:22:49;3.1;53.4
78455;SHT31;67751;51.986;5.696;2023-03-01T01:25:19;3.1;53.0
78455;SHT31;67751;51.986;5.696;2023-03-01T01:27:48;3.1;53.2
78455;SHT31;67751;51.986;5.696;2023-03-01T01:30:18;3.1;53.2
78455;SHT31;67751;51.986;5.696;2023-03-01T01:32:48;3.1;53.6
78455;SHT31;67751;51.986;5.696;2023-03-01T01:35:18;3.1;54.1
78455;SHT31;67751;51.986;5.696;2023-03-01T01:37:48;3.1;53.3
78455;SHT31;67751;51.986;5.696;2023-03-01T01:40:18;3.1;53.7
78455;SHT31;67751;51.986;5.696;2023-03-01T01:42:48;3.1;54.0
78455;SHT31;67751;51.986;5.696;2023-03-01T01:45:28;3.1;53.5
78455;SHT31;67751;51.986;5.696;2023-03-01T01:48:03;3.1;53.8
78455;SHT31;67751;51.986;5.696;2023-03-01T01:50:35;3.1;54.1
78455;SHT31;67751;51.986;5.696;2023-03-01T01:53:11;3.1;53.7
78455;SHT31;67751;51.986;5.696;2023-03-01T01:55:44;3.1;53.2
78455;SHT31;67751;51.986;5.696;2023-03-01T01:58:19;3.1;53.7
78455;SHT31;67751;51.986;5.696;2023-03-01T02:00:49;3.1;53.8
78455;SHT31;67751;51.986;5.696;2023-03-01T02:03:23;3.1;53.7
78455;SHT31;67751;51.986;5.696;2023-03-01T02:06:03;3.1;54.0
78455;SHT31;67751;51.986;5.696;2023-03-01T02:08:36;3.1;53.2
78455;SHT31;67751;51.986;5.696;2023-03-01T02:11:08;3.1;53.0
78455;SHT31;67751;51.986;5.696;2023-03-01T02:13:42;3.1;53.6
78455;SHT31;67751;51.986;5.696;2023-03-01T02:16:14;3.1;53.5
78455;SHT31;67751;51.986;5.696;2023-03-01T02:18:44;3.1;53.5
78455;SHT31;67751;51.986;5.696;2023-03-01T02:21:28;3.1;53.9
78455;SHT31;67751;51.986;5.696;2023-03-01T02:24:05;3.1;54.1
78455;SHT31;67751;51.986;5.696;2023-03-01T02:26:42;3.1;53.9
78455;SHT31;67751;51.986;5.696;2023-03-01T02:29:15;3.1;53.1
78455;SHT31;67751;51.986;5.696;2023-03-01T02:31:45;3.1;53.3
78455;SHT31;67751;51.986;5.696;2023-03-01T02:34:18;3.1;53.1
78455;SHT31;67751;51.986;5.696;2023-03-01T02:36:52;3.1;53.0
78455;SHT31;67751;51.986;5.696;2023-03-01T02:39:27;3.1;53.1
78455;SHT31;67751;51.986;5.696;2023-03-01T02:41:58;3.1;53.0
78455;SHT31;67751;51.986;5.696;2023-03-01T02:44:28;3.1;53.2
78455;SHT31;67751;51.986;5.696;2023-03-01T02:47:02;3.1;53.3
78455;SHT31;67751;51.986;5.696;2023-03-01T02:49:35;3.1;53.0
78455;SHT31;67751;51.986;5.696;2023-03-01T02:53:09;3.1;52.3
78455;SHT31;67751;51.986;5.696;2023-03-01T02:55:40;3.1;52.9
78455;SHT31;67751;51.986;5.696;2023-03-01T02:58:10;3.0;53.2
78455;SHT31;67751;51.986;5.696;2023-03-01T03:00:42;3.0;53.6
78455;SHT31;67751;51.986;5.696;2023-03-01T03:03:15;3.0;53.8
78455;SHT31;67751;51.986;5.696;2023-03-01T03:05:46;3.0;53.4
78455;SHT31;67751;51.986;5.696;2023-03-01T03:08:16;3.0;53.8
78455;SHT31;67751;51.986;5.696;2023-03-01T03:10:50;3.0;53.2
78455;SHT31;67751;51.986;5.696;2023-03-01T03:13:20;3.0;53.5
78455;SHT31;67751;51.986;5.696;2023-03-01T03:15:55;3.0;53.2
78455;SHT31;67751;51.986;5.696;2023-03-01T03:18:25;3.0;53.5
78455;SHT31;67751;51.986;5.696;2023-03-01T03:20:55;3.0;53.5
78455;SHT31;67751;51.986;5.696;2023-03-01T03:23:25;2.9;53.4
78455;SHT31;67751;51.986;5.696;2023-03-01T03:25:56;2.9;53.8
78455;SHT31;67751;51.986;5.696;2023-03-01T03:28:26;2.9;53.7
78455;SHT31;67751;51.986;5.696;2023-03-01T03:30:56;2.9;53.4
78455;SHT31;67751;51.986;5.696;2023-03-01T03:33:31;2.9;54.0
78455;SHT31;67751;51.986;5.696;2023-03-01T03:36:01;2.9;53.4
78455;SHT31;67751;51.986;5.696;2023-03-01T03:38:30;2.9;53.3
78455;SHT31;67751;51.986;5.696;2023-03-01T03:41:03;2.9;53.0
78455;SHT31;67751;51.986;5.696;2023-03-01T03:43:36;2.9;53.3
78455;SHT31;67751;51.986;5.696;2023-03-01T03:46:06;2.9;53.5
78455;SHT31;67751;51.986;5.696;2023-03-01T03:48:38;2.9;53.8
78455;SHT31;67751;51.986;5.696;2023-03-01T03:51:10;2.8;54.3
78455;SHT31;67751;51.986;5.696;2023-03-01T03:53:40;2.8;54.1
78455;SHT31;67751;51.986;5.696;2023-03-01T03:56:11;2.8;54.4
78455;SHT31;67751;51.986;5.696;2023-03-01T03:58:41;2.8;54.3
78455;SHT31;67751;51.986;5.696;2023-03-01T04:01:10;2.8;54.3
78455;SHT31;67751;51.986;5.696;2023-03-01T04:03:42;2.8;54.5
78455;SHT31;67751;51.986;5.696;2023-03-01T04:06:14;2.8;54.9
78455;SHT31;67751;51.986;5.696;2023-03-01T04:08:46;2.8;54.5
78455;SHT31;67751;51.986;5.696;2023-03-01T04:11:18;2.8;54.7
78455;SHT31;67751;51.986;5.696;2023-03-01T04:13:58;2.8;54.6
78455;SHT31;67751;51.986;5.696;2023-03-01T04:16:28;2.8;54.2
78455;SHT31;67751;51.986;5.696;2023-03-01T04:18:58;2.8;54.5
78455;SHT31;67751;51.986;5.696;2023-03-01T04:21:28;2.8;54.3
78455;SHT31;67751;51.986;5.696;2023-03-01T04:23:58;2.8;54.5
78455;SHT31;67751;51.986;5.696;2023-03-01T04:26:29;2.7;54.8
78455;SHT31;67751;51.986;5.696;2023-03-01T04:28:59;2.7;55.2
78455;SHT31;67751;51.986;5.696;2023-03-01T04:31:29;2.7;55.2
78455;SHT31;67751;51.986;5.696;2023-03-01T04:33:58;2.7;54.9
78455;SHT31;67751;51.986;5.696;2023-03-01T04:36:29;2.7;54.7
78455;SHT31;67751;51.986;5.696;2023-03-01T04:38:59;2.7;55.1
78455;SHT31;67751;51.986;5.696;2023-03-01T04:41:34;2.7;54.0
78455;SHT31;67751;51.986;5.696;2023-03-01T04:44:05;2.6;54.4
78455;SHT31;67751;51.986;5.696;2023-03-01T04:46:36;2.6;54.4
78455;SHT31;67751;51.986;5.696;2023-03-01T04:49:08;2.6;54.3
78455;SHT31;67751;51.986;5.696;2023-03-01T04:51:38;2.6;54.7
78455;SHT31;67751;51.986;5.696;2023-03-01T04:54:07;2.6;55.1
78455;SHT31;67751;51.986;5.696;2023-03-01T04:56:37;2.5;54.9
78455;SHT31;67751;51.986;5.696;2023-03-01T04:59:07;2.5;54.7
78455;SHT31;67751;51.986;5.696;2023-03-01T05:01:37;2.5;54.9
78455;SHT31;67751;51.986;5.696;2023-03-01T05:04:10;2.5;55.0
78455;SHT31;67751;51.986;5.696;2023-03-01T05:06:40;2.5;54.7
78455;SHT31;67751;51.986;5.696;2023-03-01T05:09:10;2.5;55.0
78455;SHT31;67751;51.986;5.696;2023-03-01T05:11:40;2.5;55.2
78455;SHT31;67751;51.986;5.696;2023-03-01T05:14:10;2.5;55.6
78455;SHT31;67751;51.986;5.696;2023-03-01T05:16:40;2.5;55.5
78455;SHT31;67751;51.986;5.696;2023-03-01T05:19:09;2.5;55.5
78455;SHT31;67751;51.986;5.696;2023-03-01T05:21:43;2.5;55.7
78455;SHT31;67751;51.986;5.696;2023-03-01T05:24:33;2.5;56.0
78455;SHT31;67751;51.986;5.696;2023-03-01T05:27:03;2.4;56.0
78455;SHT31;67751;51.986;5.696;2023-03-01T05:29:34;2.4;56.0
78455;SHT31;67751;51.986;5.696;2023-03-01T05:32:04;2.4;55.9
78455;SHT31;67751;51.986;5.696;2023-03-01T05:34:35;2.4;56.1
78455;SHT31;67751;51.986;5.696;2023-03-01T05:37:08;2.4;55.8
78455;SHT31;67751;51.986;5.696;2023-03-01T05:39:37;2.4;55.7
78455;SHT31;67751;51.986;5.696;2023-03-01T05:42:11;2.4;55.5
78455;SHT31;67751;51.986;5.696;2023-03-01T05:44:43;2.4;55.9
78455;SHT31;67751;51.986;5.696;2023-03-01T05:47:12;2.4;56.1
78455;SHT31;67751;51.986;5.696;2023-03-01T05:49:42;2.4;56.1
78455;SHT31;67751;51.986;5.696;2023-03-01T05:52:11;2.4;55.8
78455;SHT31;67751;51.986;5.696;2023-03-01T05:54:41;2.4;56.0
78455;SHT31;67751;51.986;5.696;2023-03-01T05:57:11;2.3;56.0
78455;SHT31;67751;51.986;5.696;2023-03-01T05:59:40;2.3;56.1
78455;SHT31;67751;51.986;5.696;2023-03-01T06:02:10;2.3;56.0
78455;SHT31;67751;51.986;5.696;2023-03-01T06:04:40;2.3;56.4
78455;SHT31;67751;51.986;5.696;2023-03-01T06:07:09;2.3;56.3
78455;SHT31;67751;51.986;5.696;2023-03-01T06:09:39;2.3;56.3
78455;SHT31;67751;51.986;5.696;2023-03-01T06:12:08;2.2;56.8
78455;SHT31;67751;51.986;5.696;2023-03-01T06:14:38;2.2;56.8
78455;SHT31;67751;51.986;5.696;2023-03-01T06:17:08;2.2;56.6
78455;SHT31;67751;51.986;5.696;2023-03-01T06:19:38;2.2;56.8
78455;SHT31;67751;51.986;5.696;2023-03-01T06:22:07;2.2;56.6
78455;SHT31;67751;51.986;5.696;2023-03-01T06:24:37;2.2;56.5
78455;SHT31;67751;51.986;5.696;2023-03-01T06:27:09;2.2;56.2
78455;SHT31;67751;51.986;5.696;2023-03-01T06:29:39;2.2;56.2
78455;SHT31;67751;51.986;5.696;2023-03-01T06:32:09;2.2;56.4
78455;SHT31;67751;51.986;5.696;2023-03-01T06:34:39;2.2;56.7
78455;SHT31;67751;51.986;5.696;2023-03-01T06:37:12;2.2;56.7
78455;SHT31;67751;51.986;5.696;2023-03-01T06:39:41;2.2;57.2
78455;SHT31;67751;51.986;5.696;2023-03-01T06:42:11;2.3;57.0
78455;SHT31;67751;51.986;5.696;2023-03-01T06:44:43;2.3;57.2
78455;SHT31;67751;51.986;5.696;2023-03-01T06:47:13;2.3;57.2
78455;SHT31;67751;51.986;5.696;2023-03-01T06:49:43;2.3;56.8
78455;SHT31;67751;51.986;5.696;2023-03-01T06:52:13;2.3;56.5
78455;SHT31;67751;51.986;5.696;2023-03-01T06:54:42;2.3;56.5
78455;SHT31;67751;51.986;5.696;2023-03-01T06:57:12;2.4;56.7
78455;SHT31;67751;51.986;5.696;2023-03-01T06:59:42;2.4;56.5
78455;SHT31;67751;51.986;5.696;2023-03-01T07:02:13;2.4;55.9
78455;SHT31;67751;51.986;5.696;2023-03-01T07:04:45;2.4;56.6
78455;SHT31;67751;51.986;5.696;2023-03-01T07:07:17;2.4;56.8
78455;SHT31;67751;51.986;5.696;2023-03-01T07:09:48;2.4;57.1
78455;SHT31;67751;51.986;5.696;2023-03-01T07:12:18;2.4;57.2
78455;SHT31;67751;51.986;5.696;2023-03-01T07:14:48;2.4;57.1
78455;SHT31;67751;51.986;5.696;2023-03-01T07:17:18;2.4;57.0
78455;SHT31;67751;51.986;5.696;2023-03-01T07:19:48;2.5;57.2
78455;SHT31;67751;51.986;5.696;2023-03-01T07:22:17;2.5;57.5
78455;SHT31;67751;51.986;5.696;2023-03-01T07:24:49;2.5;57.5
78455;SHT31;67751;51.986;5.696;2023-03-01T07:27:19;2.5;57.2
78455;SHT31;67751;51.986;5.696;2023-03-01T07:29:48;2.5;57.1
78455;SHT31;67751;51.986;5.696;2023-03-01T07:32:18;2.6;57.0
78455;SHT31;67751;51.986;5.696;2023-03-01T07:34:47;2.6;57.1
78455;SHT31;67751;51.986;5.696;2023-03-01T07:37:17;2.6;57.3
78455;SHT31;67751;51.986;5.696;2023-03-01T07:39:47;2.7;56.8
78455;SHT31;67751;51.986;5.696;2023-03-01T07:42:17;2.7;57.4
78455;SHT31;67751;51.986;5.696;2023-03-01T07:44:46;2.7;57.6
78455;SHT31;67751;51.986;5.696;2023-03-01T07:47:16;2.7;57.4
78455;SHT31;67751;51.986;5.696;2023-03-01T07:49:46;2.7;57.0
78455;SHT31;67751;51.986;5.696;2023-03-01T07:52:15;2.7;56.8
78455;SHT31;67751;51.986;5.696;2023-03-01T07:54:45;2.7;57.1
78455;SHT31;67751;51.986;5.696;2023-03-01T07:57:15;2.7;57.1
78455;SHT31;67751;51.986;5.696;2023-03-01T07:59:44;2.8;57.7
78455;SHT31;67751;51.986;5.696;2023-03-01T08:02:16;2.8;57.3
78455;SHT31;67751;51.986;5.696;2023-03-01T08:04:46;2.8;57.5
78455;SHT31;67751;51.986;5.696;2023-03-01T08:07:15;2.9;57.7
78455;SHT31;67751;51.986;5.696;2023-03-01T08:09:45;2.9;57.7
78455;SHT31;67751;51.986;5.696;2023-03-01T08:12:15;2.9;57.2
78455;SHT31;67751;51.986;5.696;2023-03-01T08:14:45;3.0;57.4
78455;SHT31;67751;51.986;5.696;2023-03-01T08:17:16;3.0;57.2
78455;SHT31;67751;51.986;5.696;2023-03-01T08:19:46;3.0;57.0
78455;SHT31;67751;51.986;5.696;2023-03-01T08:22:16;3.0;56.7
78455;SHT31;67751;51.986;5.696;2023-03-01T08:24:46;3.1;56.8
78455;SHT31;67751;51.986;5.696;2023-03-01T08:27:17;3.1;57.2
78455;SHT31;67751;51.986;5.696;2023-03-01T08:29:47;3.2;57.0
78455;SHT31;67751;51.986;5.696;2023-03-01T08:32:16;3.2;57.0
78455;SHT31;67751;51.986;5.696;2023-03-01T08:34:48;3.2;57.8
78455;SHT31;67751;51.986;5.696;2023-03-01T08:37:17;3.3;57.2
78455;SHT31;67751;51.986;5.696;2023-03-01T08:39:47;3.3;55.8
78455;SHT31;67751;51.986;5.696;2023-03-01T08:42:17;3.4;54.5
78455;SHT31;67751;51.986;5.696;2023-03-01T08:44:46;3.4;55.1
78455;SHT31;67751;51.986;5.696;2023-03-01T08:47:19;3.5;55.1
78455;SHT31;67751;51.986;5.696;2023-03-01T08:49:49;3.5;54.9
78455;SHT31;67751;51.986;5.696;2023-03-01T08:52:20;3.5;55.6
78455;SHT31;67751;51.986;5.696;2023-03-01T08:54:52;3.6;54.8
78455;SHT31;67751;51.986;5.696;2023-03-01T08:57:22;3.6;55.5
78455;SHT31;67751;51.986;5.696;2023-03-01T08:59:51;3.6;55.1
78455;SHT31;67751;51.986;5.696;2023-03-01T09:02:23;3.7;55.4
78455;SHT31;67751;51.986;5.696;2023-03-01T09:04:53;3.7;55.5
78455;SHT31;67751;51.986;5.696;2023-03-01T09:07:22;3.8;55.7
78455;SHT31;67751;51.986;5.696;2023-03-01T09:09:55;3.8;55.8
78455;SHT31;67751;51.986;5.696;2023-03-01T09:12:25;3.9;55.8
78455;SHT31;67751;51.986;5.696;2023-03-01T09:14:55;3.9;55.2
78455;SHT31;67751;51.986;5.696;2023-03-01T09:17:24;4.0;55.2
78455;SHT31;67751;51.986;5.696;2023-03-01T09:19:54;4.0;54.5
78455;SHT31;67751;51.986;5.696;2023-03-01T09:22:24;4.1;55.4
78455;SHT31;67751;51.986;5.696;2023-03-01T09:24:53;4.1;54.9
78455;SHT31;67751;51.986;5.696;2023-03-01T09:27:24;4.2;54.8
78455;SHT31;67751;51.986;5.696;2023-03-01T09:29:53;4.2;55.1
78455;SHT31;67751;51.986;5.696;2023-03-01T09:32:23;4.3;53.7
78455;SHT31;67751;51.986;5.696;2023-03-01T09:34:53;4.3;55.1
78455;SHT31;67751;51.986;5.696;2023-03-01T09:37:34;4.4;55.3
78455;SHT31;67751;51.986;5.696;2023-03-01T09:40:06;4.5;54.7
78455;SHT31;67751;51.986;5.696;2023-03-01T09:42:48;4.5;54.0
78455;SHT31;67751;51.986;5.696;2023-03-01T09:45:26;4.6;52.5
78455;SHT31;67751;51.986;5.696;2023-03-01T09:47:57;4.6;52.6
78455;SHT31;67751;51.986;5.696;2023-03-01T09:50:32;4.7;52.1
78455;SHT31;67751;51.986;5.696;2023-03-01T09:53:06;4.8;52.2
78455;SHT31;67751;51.986;5.696;2023-03-01T09:55:41;4.8;52.6
78455;SHT31;67751;51.986;5.696;2023-03-01T09:58:31;4.9;50.6
78455;SHT31;67751;51.986;5.696;2023-03-01T10:01:21;5.0;49.1
78455;SHT31;67751;51.986;5.696;2023-03-01T10:04:02;5.1;49.4
78455;SHT31;67751;51.986;5.696;2023-03-01T10:06:34;5.1;49.2
78455;SHT31;67751;51.986;5.696;2023-03-01T10:09:12;5.2;49.9
78455;SHT31;67751;51.986;5.696;2023-03-01T10:11:48;5.2;48.7
78455;SHT31;67751;51.986;5.696;2023-03-01T10:14:29;5.3;49.6
78455;SHT31;67751;51.986;5.696;2023-03-01T10:17:03;5.4;48.0
78455;SHT31;67751;51.986;5.696;2023-03-01T10:19:39;5.4;47.2
78455;SHT31;67751;51.986;5.696;2023-03-01T10:22:15;5.5;47.5
78455;SHT31;67751;51.986;5.696;2023-03-01T10:24:45;5.5;46.5
78455;SHT31;67751;51.986;5.696;2023-03-01T10:27:21;5.6;47.2
78455;SHT31;67751;51.986;5.696;2023-03-01T10:30:01;5.6;45.9
78455;SHT31;67751;51.986;5.696;2023-03-01T10:32:36;5.7;45.8
78455;SHT31;67751;51.986;5.696;2023-03-01T10:35:18;5.7;45.1
78455;SHT31;67751;51.986;5.696;2023-03-01T10:37:59;5.8;45.9
78455;SHT31;67751;51.986;5.696;2023-03-01T10:40:32;5.8;46.0
78455;SHT31;67751;51.986;5.696;2023-03-01T10:43:04;5.8;44.7
78455;SHT31;67751;51.986;5.696;2023-03-01T10:45:37;5.9;44.7
78455;SHT31;67751;51.986;5.696;2023-03-01T10:48:12;5.9;45.2
78455;SHT31;67751;51.986;5.696;2023-03-01T10:50:45;6.0;45.5
78455;SHT31;67751;51.986;5.696;2023-03-01T10:53:36;6.0;46.7
78455;SHT31;67751;51.986;5.696;2023-03-01T10:56:09;6.1;44.7
78455;SHT31;67751;51.986;5.696;2023-03-01T10:58:41;6.1;44.9
78455;SHT31;67751;51.986;5.696;2023-03-01T11:01:33;6.2;44.5
78455;SHT31;67751;51.986;5.696;2023-03-01T11:04:13;6.2;44.3
78455;SHT31;67751;51.986;5.696;2023-03-01T11:06:57;6.3;43.8
78455;SHT31;67751;51.986;5.696;2023-03-01T11:09:25;6.3;43.8
78455;SHT31;67751;51.986;5.696;2023-03-01T11:11:57;6.4;45.2
78455;SHT31;67751;51.986;5.696;2023-03-01T11:14:35;6.4;44.5
78455;SHT31;67751;51.986;5.696;2023-03-01T11:17:15;6.5;43.1
78455;SHT31;67751;51.986;5.696;2023-03-01T11:20:05;6.5;43.6
78455;SHT31;67751;51.986;5.696;2023-03-01T11:22:36;6.5;44.7
78455;SHT31;67751;51.986;5.696;2023-03-01T11:25:12;6.5;44.6
78455;SHT31;67751;51.986;5.696;2023-03-01T11:27:44;6.6;43.6
78455;SHT31;67751;51.986;5.696;2023-03-01T11:30:19;6.6;44.6
78455;SHT31;67751;51.986;5.696;2023-03-01T11:32:54;6.6;42.6
78455;SHT31;67751;51.986;5.696;2023-03-01T11:35:28;6.7;42.0
78455;SHT31;67751;51.986;5.696;2023-03-01T11:38:18;6.7;42.7
78455;SHT31;67751;51.986;5.696;2023-03-01T11:40:52;6.8;42.4
78455;SHT31;67751;51.986;5.696;2023-03-01T11:43:33;6.8;42.0
78455;SHT31;67751;51.986;5.696;2023-03-01T11:46:29;6.8;42.2
78455;SHT31;67751;51.986;5.696;2023-03-01T11:49:58;6.9;42.7
78455;SHT31;67751;51.986;5.696;2023-03-01T11:52:38;6.9;42.2
78455;SHT31;67751;51.986;5.696;2023-03-01T11:55:26;6.9;41.3
78455;SHT31;67751;51.986;5.696;2023-03-01T11:58:17;6.9;42.9
78455;SHT31;67751;51.986;5.696;2023-03-01T12:01:06;7.0;42.6
78455;SHT31;67751;51.986;5.696;2023-03-01T12:03:46;7.0;41.2
78455;SHT31;67751;51.986;5.696;2023-03-01T12:06:29;7.1;42.0
78455;SHT31;67751;51.986;5.696;2023-03-01T12:09:16;7.1;41.9
78455;SHT31;67751;51.986;5.696;2023-03-01T12:12:38;7.1;42.5
78455;SHT31;67751;51.986;5.696;2023-03-01T12:16:26;7.2;43.0
78455;SHT31;67751;51.986;5.696;2023-03-01T12:19:10;7.2;43.0
78455;SHT31;67751;51.986;5.696;2023-03-01T12:21:57;7.3;42.4
78455;SHT31;67751;51.986;5.696;2023-03-01T12:24:51;7.3;43.0
78455;SHT31;67751;51.986;5.696;2023-03-01T12:27:40;7.4;42.7
78455;SHT31;67751;51.986;5.696;2023-03-01T12:30:25;7.4;41.7
78455;SHT31;67751;51.986;5.696;2023-03-01T12:33:09;7.5;41.7
78455;SHT31;67751;51.986;5.696;2023-03-01T12:36:36;7.5;41.9
78455;SHT31;67751;51.986;5.696;2023-03-01T12:39:23;7.6;41.9
78455;SHT31;67751;51.986;5.696;2023-03-01T12:42:07;7.6;41.7
78455;SHT31;67751;51.986;5.696;2023-03-01T12:45:00;7.7;41.7
78455;SHT31;67751;51.986;5.696;2023-03-01T12:47:44;7.7;41.2
78455;SHT31;67751;51.986;5.696;2023-03-01T12:50:22;7.7;40.9
78455;SHT31;67751;51.986;5.696;2023-03-01T12:52:56;7.7;41.7
78455;SHT31;67751;51.986;5.696;2023-03-01T12:55:29;7.8;41.1
78455;SHT31;67751;51.986;5.696;2023-03-01T12:58:16;7.8;41.0
78455;SHT31;67751;51.986;5.696;2023-03-01T13:01:08;7.8;41.5
78455;SHT31;67751;51.986;5.696;2023-03-01T13:04:05;7.8;40.8
78455;SHT31;67751;51.986;5.696;2023-03-01T13:06:47;7.8;40.0
78455;SHT31;67751;51.986;5.696;2023-03-01T13:09:24;7.8;41.1
78455;SHT31;67751;51.986;5.696;2023-03-01T13:11:57;7.8;41.0
78455;SHT31;67751;51.986;5.696;2023-03-01T13:14:47;7.9;41.7
78455;SHT31;67751;51.986;5.696;2023-03-01T13:17:33;7.9;39.4
78455;SHT31;67751;51.986;5.696;2023-03-01T13:20:15;7.9;39.8
78455;SHT31;67751;51.986;5.696;2023-03-01T13:22:47;7.9;41.3
78455;SHT31;67751;51.986;5.696;2023-03-01T13:25:24;8.0;41.0
78455;SHT31;67751;51.986;5.696;2023-03-01T13:30:48;8.0;41.4
78455;SHT31;67751;51.986;5.696;2023-03-01T13:33:41;8.0;40.7
78455;SHT31;67751;51.986;5.696;2023-03-01T13:41:07;8.0;40.8
78455;SHT31;67751;51.986;5.696;2023-03-01T13:43:38;8.1;41.4
78455;SHT31;67751;51.986;5.696;2023-03-01T13:46:16;8.1;39.6
78455;SHT31;67751;51.986;5.696;2023-03-01T13:48:50;8.1;39.6
78455;SHT31;67751;51.986;5.696;2023-03-01T13:51:25;8.1;40.9
78455;SHT31;67751;51.986;5.696;2023-03-01T13:53:57;8.1;39.9
78455;SHT31;67751;51.986;5.696;2023-03-01T13:56:35;8.1;40.1
78455;SHT31;67751;51.986;5.696;2023-03-01T13:59:15;8.1;40.9
78455;SHT31;67751;51.986;5.696;2023-03-01T14:01:55;8.2;39.0
78455;SHT31;67751;51.986;5.696;2023-03-01T14:04:27;8.2;39.3
78455;SHT31;67751;51.986;5.696;2023-03-01T14:07:11;8.2;39.3
78455;SHT31;67751;51.986;5.696;2023-03-01T14:09:44;8.2;39.7
78455;SHT31;67751;51.986;5.696;2023-03-01T14:12:32;8.2;40.5
78455;SHT31;67751;51.986;5.696;2023-03-01T14:15:09;8.3;39.9
78455;SHT31;67751;51.986;5.696;2023-03-01T14:17:50;8.3;40.5
78455;SHT31;67751;51.986;5.696;2023-03-01T14:20:23;8.3;40.3
78455;SHT31;67751;51.986;5.696;2023-03-01T14:22:56;8.3;38.7
78455;SHT31;67751;51.986;5.696;2023-03-01T14:25:31;8.3;40.2
78455;SHT31;67751;51.986;5.696;2023-03-01T14:28:11;8.3;38.7
78455;SHT31;67751;51.986;5.696;2023-03-01T14:30:43;8.3;40.0
78455;SHT31;67751;51.986;5.696;2023-03-01T14:33:25;8.3;38.3
78455;SHT31;67751;51.986;5.696;2023-03-01T14:36:04;8.3;39.1
78455;SHT31;67751;51.986;5.696;2023-03-01T14:38:37;8.3;38.7
78455;SHT31;67751;51.986;5.696;2023-03-01T14:41:10;8.3;40.0
78455;SHT31;67751;51.986;5.696;2023-03-01T14:43:45;8.3;39.9
78455;SHT31;67751;51.986;5.696;2023-03-01T14:46:20;8.3;40.6
78455;SHT31;67751;51.986;5.696;2023-03-01T14:48:54;8.3;39.9
78455;SHT31;67751;51.986;5.696;2023-03-01T14:51:25;8.3;40.3
78455;SHT31;67751;51.986;5.696;2023-03-01T14:53:56;8.3;40.4
78455;SHT31;67751;51.986;5.696;2023-03-01T14:56:26;8.3;40.5
78455;SHT31;67751;51.986;5.696;2023-03-01T14:58:58;8.3;40.9
78455;SHT31;67751;51.986;5.696;2023-03-01T15:01:28;8.3;40.7
78455;SHT31;67751;51.986;5.696;2023-03-01T15:04:01;8.3;40.5
78455;SHT31;67751;51.986;5.696;2023-03-01T15:06:32;8.3;40.5
78455;SHT31;67751;51.986;5.696;2023-03-01T15:09:02;8.3;42.0
78455;SHT31;67751;51.986;5.696;2023-03-01T15:11:33;8.3;41.0
78455;SHT31;67751;51.986;5.696;2023-03-01T15:16:57;8.3;39.6
78455;SHT31;67751;51.986;5.696;2023-03-01T15:19:28;8.3;40.6
78455;SHT31;67751;51.986;5.696;2023-03-01T15:21:58;8.3;40.1
78455;SHT31;67751;51.986;5.696;2023-03-01T15:24:33;8.2;39.8
78455;SHT31;67751;51.986;5.696;2023-03-01T15:27:04;8.2;40.8
78455;SHT31;67751;51.986;5.696;2023-03-01T15:29:36;8.2;39.6
78455;SHT31;67751;51.986;5.696;2023-03-01T15:32:29;8.2;39.1
78455;SHT31;67751;51.986;5.696;2023-03-01T15:35:01;8.2;37.9
78455;SHT31;67751;51.986;5.696;2023-03-01T15:37:44;8.2;39.1
78455;SHT31;67751;51.986;5.696;2023-03-01T15:40:23;8.2;40.8
78455;SHT31;67751;51.986;5.696;2023-03-01T15:42:59;8.2;41.0
78455;SHT31;67751;51.986;5.696;2023-03-01T15:45:31;8.2;40.2
78455;SHT31;67751;51.986;5.696;2023-03-01T15:48:17;8.2;38.2
78455;SHT31;67751;51.986;5.696;2023-03-01T15:50:56;8.2;39.8
78455;SHT31;67751;51.986;5.696;2023-03-01T15:53:27;8.1;39.8
78455;SHT31;67751;51.986;5.696;2023-03-01T15:55:58;8.1;39.5
78455;SHT31;67751;51.986;5.696;2023-03-01T15:58:30;8.1;40.5
78455;SHT31;67751;51.986;5.696;2023-03-01T16:01:00;8.1;41.0
78455;SHT31;67751;51.986;5.696;2023-03-01T16:03:29;8.1;40.3
78455;SHT31;67751;51.986;5.696;2023-03-01T16:06:01;8.1;40.3
78455;SHT31;67751;51.986;5.696;2023-03-01T16:08:31;8.1;39.2
78455;SHT31;67751;51.986;5.696;2023-03-01T16:11:01;8.0;40.2
78455;SHT31;67751;51.986;5.696;2023-03-01T16:13:32;8.0;41.5
78455;SHT31;67751;51.986;5.696;2023-03-01T16:16:02;8.0;40.8
78455;SHT31;67751;51.986;5.696;2023-03-01T16:18:32;8.0;39.3
78455;SHT31;67751;51.986;5.696;2023-03-01T16:21:01;8.0;39.7
78455;SHT31;67751;51.986;5.696;2023-03-01T16:23:31;8.0;39.8
78455;SHT31;67751;51.986;5.696;2023-03-01T16:26:01;8.0;40.2
78455;SHT31;67751;51.986;5.696;2023-03-01T16:28:30;7.9;40.9
78455;SHT31;67751;51.986;5.696;2023-03-01T16:31:00;7.9;41.0
78455;SHT31;67751;51.986;5.696;2023-03-01T16:33:30;7.9;40.8
78455;SHT31;67751;51.986;5.696;2023-03-01T16:36:01;7.9;40.5
78455;SHT31;67751;51.986;5.696;2023-03-01T16:38:36;7.9;41.6
78455;SHT31;67751;51.986;5.696;2023-03-01T16:41:15;7.9;41.6
78455;SHT31;67751;51.986;5.696;2023-03-01T16:43:45;7.9;41.5
78455;SHT31;67751;51.986;5.696;2023-03-01T16:46:18;7.9;41.3
78455;SHT31;67751;51.986;5.696;2023-03-01T16:48:49;7.9;41.8
78455;SHT31;67751;51.986;5.696;2023-03-01T16:51:20;7.8;41.6
78455;SHT31;67751;51.986;5.696;2023-03-01T16:53:50;7.8;41.9
78455;SHT31;67751;51.986;5.696;2023-03-01T16:56:20;7.8;41.8
78455;SHT31;67751;51.986;5.696;2023-03-01T16:58:50;7.8;42.7
78455;SHT31;67751;51.986;5.696;2023-03-01T17:01:21;7.8;42.8
78455;SHT31;67751;51.986;5.696;2023-03-01T17:03:53;7.7;42.8
78455;SHT31;67751;51.986;5.696;2023-03-01T17:06:23;7.7;41.4
78455;SHT31;67751;51.986;5.696;2023-03-01T17:08:54;7.7;42.7
78455;SHT31;67751;51.986;5.696;2023-03-01T17:11:23;7.7;41.7